Historyczne dane pomiarowe

Dodano dane terminowe – wersja testowa.

Dane z okresu 1951-2019

Wersja bazy: 1.34 [2019-03-16, lista zmian], aktualizacja planowana na 2019-04-15

Dane meteo z obszaru Polski uzyskane na podstawie danych udostępnionych przez Instytut Meteorologii i Gospodarki Wodnej – Państwowy Instytut Badawczy.

 

Wybierz Datę:    

       

TemperaturaWilgotnośćWiatrCiśnienieOpadyŚniegCzas trwania zjawisk
 Stacja t tx tn tng RH VA  wxwx mslp ppp RRR   cm mm wxwxwxwxwxwxwx
1959-10-10 5.3 15.5 -3.0 -7.0 77.8- 0.0 1.0---- 0.0------------
1959-10-09 6.6 17.0 -2.0 -5.4 84.8- 0.0 1.0---- 0.0------------
1959-10-08 7.0 19.8 -2.4 -6.0 76.5- 0.0 0.7---- 0.0------------
1959-10-07 5.8 19.4 -2.8 -4.8 78.0- 0.0 1.0---- 0.0------------
1959-10-06 3.0 15.0 -6.5 -8.8 69.8- 0.3 2.0---- 0.0------------
1959-10-05 1.9 11.1 -2.8 -8.2 73.8- 0.3 2.0---- 0.0------------
1959-10-04 7.2 11.5 3.3 1.0 87.0- 5.3 2.7---- 0.0------------
1959-10-03 9.9 20.4 0.9 -2.9 84.0- 2.7 1.0---- 0.0------------
1959-10-02 8.0 22.2 -0.6 -3.0 84.8- 0.0 1.0---- 0.0------------
1959-10-01 6.3 18.0 -2.2 -5.5 84.3- 0.0 1.0---- 0.0------------
1959-09-30 4.7 16.2 -3.5 -6.3 87.0- 0.0 0.7---- 0.0------------
1959-09-29 4.0 14.5 -3.7 -6.4 85.8- 1.0 0.3---- 0.0------------
1959-09-28 7.9 15.2 3.7 6.1 80.5- 4.0 3.7---- 0.2------------
1959-09-27 12.0 19.1 3.6 0.8 70.0- 4.3 3.3---- 0.0------------
1959-09-26 7.6 19.5 -1.0 -3.7 82.0- 1.0 0.3---- 0.0------------
1959-09-25 6.4 17.2 -0.3 -2.9 84.0- 2.0 0.7---- 0.0------------
1959-09-24 11.8 16.5 9.7 7.2 77.5- 4.3 4.3---- 0.3------------
1959-09-23 15.2 19.1 10.4 8.8 68.0- 3.7 4.7---- 0.0------------
1959-09-22 15.0 18.9 10.3 6.7 74.5- 5.3 4.7---- 0.0------------
1959-09-21 13.2 22.7 3.8 0.4 73.0- 2.0 1.3---- 0.0------------
1959-09-20 13.5 18.4 10.0 7.3 77.5- 4.3 2.3---- 0.0------------
1959-09-19 12.0 20.0 -0.1 -2.4 69.8- 2.0 1.0---- 0.0------------
1959-09-18 7.0 18.5 -1.5 -4.4 81.8- 1.3 1.0---- 0.0------------
1959-09-17 6.7 16.5 -1.1 -4.2 79.8- 1.0 2.0---- 0.0------------
1959-09-16 10.8 19.5 6.5 2.5 81.3- 2.0 3.0---- 0.0------------
1959-09-15 11.2 21.8 2.0 -0.1 78.0- 0.3 0.7---- 0.0------------
1959-09-14 11.4 19.5 7.7 3.7 76.5- 1.7 2.0---- 0.0------------
1959-09-13 16.2 22.5 8.8 6.1 68.5- 4.7 1.7---- 0.0------------
1959-09-12 14.1 25.7 4.4 2.4 80.3- 1.0 0.7---- 0.0------------
1959-09-11 14.5 23.6 5.3 2.9 81.8- 0.0 1.7---- 0.0------------
1959-09-10 15.2 23.3 4.5 2.7 74.0- 0.3 0.7---- 0.0------------
1959-09-09 13.8 22.1 8.9 6.1 89.0- 2.0 0.7---- 0.0------------
1959-09-08 14.6 23.3 4.5 2.4 78.3- 3.3 2.3---- 0.0------------
1959-09-07 11.1 21.4 3.0 0.8 84.0- 0.7 0.3---- 0.0------------
1959-09-06 13.0 21.2 5.9 3.9 81.0- 4.3 2.3---- 0.0------------
1959-09-05 13.7 22.0 6.2 4.2 86.5- 3.7 1.7---- 0.0------------
1959-09-04 13.7 23.1 3.6 1.7 84.8- 2.0 1.3---- 0.0------------
1959-09-03 13.3 20.4 7.2 4.1 83.8- 2.0 1.3---- 0.0------------
1959-09-02 11.8 20.0 3.5 1.2 83.8- 1.0 0.7---- 0.0------------
1959-09-01 9.8 18.8 2.9 1.2 80.8- 2.0 1.0---- 0.0------------
1959-08-31 11.7 17.9 3.0 1.0 81.5- 2.3 1.3---- 0.0------------
1959-08-30 11.0 16.3 7.6 3.7 78.5- 3.7 1.7---- 0.0------------
1959-08-29 11.3 17.5 3.1 0.1 79.0- 4.7 3.7---- 0.0------------
1959-08-28 12.4 16.3 10.4 8.3 86.3- 5.0 3.7---- 0.0------------
1959-08-27 15.4 20.7 12.7 10.7 65.8- 1.3 4.7---- 0.0------------
1959-08-26 21.3 25.0 18.9 16.6 71.3- 4.7 6.3---- 0.0------------
1959-08-25 22.7 26.5 16.7 13.1 74.0- 7.3 4.0---- 0.0------------
1959-08-24 20.5 27.4 14.4 12.5 83.0- 0.3 0.7---- 0.0------------
1959-08-23 21.2 29.4 12.5 9.9 77.3- 1.7 1.0---- 0.0------------
1959-08-22 21.3 29.8 12.4 10.2 68.8- 0.0 1.0---- 0.0------------
1959-08-21 20.7 28.8 11.0 8.7 67.0- 0.7 1.7---- 0.0------------
1959-08-20 18.6 26.9 9.7 7.3 83.0- 1.0 1.3---- 0.0------------
1959-08-19 17.5 25.3 11.3 11.6 83.0- 1.7 1.7---- 0.0------------
1959-08-18 19.6 26.0 14.4 10.6 79.0- 4.3 1.3---- 0.0------------
1959-08-17 18.4 24.5 14.1 14.3 83.8- 4.0 3.0---- 0.0------------
1959-08-16 16.6 20.1 14.1 12.6 89.0- 7.3 1.7---- 0.2------------
1959-08-15 20.2 25.6 14.1 11.8 87.5- 4.7 1.3---- 0.0------------
1959-08-14 19.1 21.7 16.1 13.7 89.3- 5.7 1.0---- 0.0------------
1959-08-13 21.0 27.1 17.8 16.1 85.3- 4.0 2.0---- 0.0------------
1959-08-12 19.5 25.0 12.9 10.9 94.0- 5.0 0.7---- 1.5------------
179.1 ms

 

Źródłem pochodzenia danych jest Instytut Meteorologii i Gospodarki Wodnej – Państwowy Instytut Badawczy. Dane Instytutu Meteorologii i Gospodarki Wodnej – Państwowego Instytutu Badawczego zostały przetworzone.

Dane źródłowe można odnaleźć na stronie https://dane.imgw.pl